Aérodrome :
LOGIN :

S'inscrire | Disclaimer

   EN    FR    IT 

 










Légende :    VFR   VFR Marginal   IFR   IFR Intensif   IFR Très Intensif
Visi : 
Plafond : 
>= 8 km
>= 3000ft
5 à 8 km
1000 à 3000 ft
1500m à 5 km
500 à 1000 ft
800 à 1500m
200 à 500 ft
< 800m
< 200 ft
Symboles :   Orages  Brouillard  Fortes neiges  Fortes précipitations  Vent > 20 kt
SIGMETs :   Divers  Orages  Givrage  Turbulence  Onde Orograph.  Cendres Volcan.






- Altitude de l'aérodrome : 1260 ft
- Code IATA : LDE


LFBT - Tarbes / Ossun

DERNIER METAR :
  • 241930Z AUTO 24004KT 220V290 CAVOK 09/01 Q1022 BECMG OVC004

METARs EXPIRÉS :
  • 241900Z AUTO 23005KT CAVOK 09/02 Q1022 NOSIG
  • 241830Z AUTO 25006KT CAVOK 11/01 Q1022 NOSIG
  • 241800Z AUTO 22004KT CAVOK 11/01 Q1022 NOSIG
  • 241730Z AUTO 30004KT CAVOK 14/M00 Q1022 NOSIG
  • 241700Z AUTO 31006KT CAVOK 16/M00 Q1022 NOSIG

TAF TAF LFBT
Valide du 24 à 18h jusqu'au 25 à 18h UTC


241700Z 2418/2518 VRB02KT CAVOK
BECMG 2421/2423 OVC004
PROB30 2500/2506 0500 FG VV///
BECMG 2506/2508 CAVOK
BECMG 2508/2510 27010KT BKN040
TEMPO 2510/2512 -RA OVC015
TEMPO 2512/2518 4000 RA OVC010
TEMPO 2516/2518 29015G30KT



MET'MAP, la Météo Aéronautique d'un coup d'oeil ! - Copyright ORBIFLY Décembre 2007 - Disclaimer

ORBIFLY MET'MAP TEAM :

Programmation & Développement : Alexandra Zaïnal
Sur une idée originale de : Baudouin d'Aumeries
Assistance à la programmation : Marc-Olivier Méhu
Soutien technique & logistique : Manuel Goepfert

Contact : metmap@orbifly.com




SOURCES & CREDITS :

   NOAA